sensor_id;sensor_type;location;lat;lon;timestamp;pressure;altitude;pressure_sealevel;temperature;humidity
24160;BME280;62385;41.594;23.808;2022-12-18T00:00:47;96001.56;;;9.70;93.38
24160;BME280;62385;41.594;23.808;2022-12-18T00:03:14;95984.75;;;9.62;93.77
24160;BME280;62385;41.594;23.808;2022-12-18T00:05:48;95997.47;;;9.58;93.77
24160;BME280;62385;41.594;23.808;2022-12-18T00:08:14;95996.19;;;9.62;94.58
24160;BME280;62385;41.594;23.808;2022-12-18T00:10:39;96004.91;;;9.72;93.98
24160;BME280;62385;41.594;23.808;2022-12-18T00:13:05;96017.28;;;9.90;93.58
24160;BME280;62385;41.594;23.808;2022-12-18T00:15:33;96017.22;;;9.99;93.23
24160;BME280;62385;41.594;23.808;2022-12-18T00:17:59;96029.19;;;9.86;93.43
24160;BME280;62385;41.594;23.808;2022-12-18T00:20:25;96032.25;;;9.73;93.41
24160;BME280;62385;41.594;23.808;2022-12-18T00:22:54;96029.22;;;9.68;93.68
24160;BME280;62385;41.594;23.808;2022-12-18T00:25:20;96033.25;;;9.72;93.45
24160;BME280;62385;41.594;23.808;2022-12-18T00:27:46;96009.22;;;9.56;94.20
24160;BME280;62385;41.594;23.808;2022-12-18T00:30:12;96013.38;;;9.58;94.78
24160;BME280;62385;41.594;23.808;2022-12-18T00:32:38;96018.38;;;9.61;94.52
24160;BME280;62385;41.594;23.808;2022-12-18T00:35:05;96029.28;;;9.76;94.05
24160;BME280;62385;41.594;23.808;2022-12-18T00:37:30;96025.81;;;9.76;94.13
24160;BME280;62385;41.594;23.808;2022-12-18T00:39:56;96024.75;;;9.68;93.77
24160;BME280;62385;41.594;23.808;2022-12-18T00:42:21;96026.50;;;9.60;94.44
24160;BME280;62385;41.594;23.808;2022-12-18T00:45:06;96038.69;;;9.70;93.77
24160;BME280;62385;41.594;23.808;2022-12-18T00:47:32;96049.66;;;9.76;93.59
24160;BME280;62385;41.594;23.808;2022-12-18T00:49:57;96051.41;;;9.67;93.67
24160;BME280;62385;41.594;23.808;2022-12-18T00:52:23;96041.72;;;9.58;93.91
24160;BME280;62385;41.594;23.808;2022-12-18T00:54:48;96038.38;;;9.56;94.68
24160;BME280;62385;41.594;23.808;2022-12-18T00:57:14;96029.88;;;9.70;94.28
24160;BME280;62385;41.594;23.808;2022-12-18T00:59:39;96045.41;;;9.65;94.17
24160;BME280;62385;41.594;23.808;2022-12-18T01:02:05;96032.63;;;9.60;94.65
24160;BME280;62385;41.594;23.808;2022-12-18T01:04:32;96043.22;;;9.78;94.11
24160;BME280;62385;41.594;23.808;2022-12-18T01:06:59;96029.28;;;9.76;93.83
24160;BME280;62385;41.594;23.808;2022-12-18T01:09:26;96028.22;;;9.69;93.70
24160;BME280;62385;41.594;23.808;2022-12-18T01:11:51;96031.88;;;9.68;93.20
24160;BME280;62385;41.594;23.808;2022-12-18T01:14:17;96039.59;;;9.61;93.73
24160;BME280;62385;41.594;23.808;2022-12-18T01:16:43;96040.56;;;9.43;94.58
24160;BME280;62385;41.594;23.808;2022-12-18T01:19:10;96040.72;;;9.41;94.46
24160;BME280;62385;41.594;23.808;2022-12-18T01:21:36;96037.09;;;9.42;94.43
24160;BME280;62385;41.594;23.808;2022-12-18T01:24:20;96039.56;;;9.26;94.74
24160;BME280;62385;41.594;23.808;2022-12-18T01:26:46;96047.03;;;9.13;95.21
24160;BME280;62385;41.594;23.808;2022-12-18T01:29:13;96047.13;;;9.21;95.45
24160;BME280;62385;41.594;23.808;2022-12-18T01:31:39;96045.63;;;9.18;94.81
24160;BME280;62385;41.594;23.808;2022-12-18T01:34:04;96045.09;;;9.15;93.74
24160;BME280;62385;41.594;23.808;2022-12-18T01:36:33;96049.00;;;9.11;94.88
24160;BME280;62385;41.594;23.808;2022-12-18T01:39:01;96047.34;;;9.10;95.22
24160;BME280;62385;41.594;23.808;2022-12-18T01:41:29;96048.13;;;8.93;95.01
24160;BME280;62385;41.594;23.808;2022-12-18T01:49:49;96049.06;;;9.01;94.63
24160;BME280;62385;41.594;23.808;2022-12-18T01:52:15;96045.56;;;9.01;94.68
24160;BME280;62385;41.594;23.808;2022-12-18T01:54:44;96039.44;;;9.00;94.95
24160;BME280;62385;41.594;23.808;2022-12-18T01:57:11;96029.78;;;9.09;94.49
24160;BME280;62385;41.594;23.808;2022-12-18T01:59:36;96032.50;;;9.17;94.53
24160;BME280;62385;41.594;23.808;2022-12-18T02:02:03;96037.13;;;9.15;94.85
24160;BME280;62385;41.594;23.808;2022-12-18T02:04:29;96042.78;;;9.20;94.66
24160;BME280;62385;41.594;23.808;2022-12-18T02:07:03;96042.06;;;9.27;95.06
24160;BME280;62385;41.594;23.808;2022-12-18T02:09:44;96046.97;;;9.22;94.33
24160;BME280;62385;41.594;23.808;2022-12-18T02:12:22;96049.03;;;9.28;94.75
24160;BME280;62385;41.594;23.808;2022-12-18T02:20:23;96051.00;;;8.99;94.97
24160;BME280;62385;41.594;23.808;2022-12-18T02:22:55;96054.09;;;8.95;95.17
24160;BME280;62385;41.594;23.808;2022-12-18T02:28:28;96048.16;;;9.10;94.92
24160;BME280;62385;41.594;23.808;2022-12-18T02:31:01;96058.16;;;9.16;94.87
24160;BME280;62385;41.594;23.808;2022-12-18T02:33:29;96049.09;;;9.19;94.56
24160;BME280;62385;41.594;23.808;2022-12-18T02:35:57;96059.97;;;9.16;95.07
24160;BME280;62385;41.594;23.808;2022-12-18T02:38:25;96058.31;;;9.15;94.89
24160;BME280;62385;41.594;23.808;2022-12-18T02:40:52;96061.78;;;9.15;93.79
24160;BME280;62385;41.594;23.808;2022-12-18T02:43:19;96076.03;;;9.14;93.73
24160;BME280;62385;41.594;23.808;2022-12-18T02:45:57;96073.81;;;9.10;94.25
24160;BME280;62385;41.594;23.808;2022-12-18T02:48:41;96068.13;;;9.05;94.53
24160;BME280;62385;41.594;23.808;2022-12-18T02:53:54;96083.06;;;8.96;94.80
24160;BME280;62385;41.594;23.808;2022-12-18T02:56:27;96074.28;;;8.96;94.98
24160;BME280;62385;41.594;23.808;2022-12-18T03:04:39;96079.28;;;8.99;94.75
24160;BME280;62385;41.594;23.808;2022-12-18T03:07:15;96082.25;;;8.96;94.31
24160;BME280;62385;41.594;23.808;2022-12-18T03:09:48;96083.41;;;8.84;95.30
24160;BME280;62385;41.594;23.808;2022-12-18T03:12:35;96083.91;;;8.97;94.76
24160;BME280;62385;41.594;23.808;2022-12-18T03:15:09;96076.63;;;8.99;94.34
24160;BME280;62385;41.594;23.808;2022-12-18T03:17:41;96084.44;;;9.00;94.03
24160;BME280;62385;41.594;23.808;2022-12-18T03:20:13;96084.75;;;8.97;94.65
24160;BME280;62385;41.594;23.808;2022-12-18T03:22:42;96081.41;;;8.95;94.57
24160;BME280;62385;41.594;23.808;2022-12-18T03:25:13;96086.13;;;9.01;94.36
24160;BME280;62385;41.594;23.808;2022-12-18T03:27:45;96089.25;;;8.87;94.35
24160;BME280;62385;41.594;23.808;2022-12-18T03:30:15;96085.03;;;8.57;94.13
24160;BME280;62385;41.594;23.808;2022-12-18T03:32:52;96093.13;;;8.56;94.66
24160;BME280;62385;41.594;23.808;2022-12-18T03:35:24;96098.28;;;8.48;95.31
24160;BME280;62385;41.594;23.808;2022-12-18T03:37:52;96100.22;;;8.46;95.64
24160;BME280;62385;41.594;23.808;2022-12-18T03:40:20;96088.31;;;8.32;95.22
24160;BME280;62385;41.594;23.808;2022-12-18T03:42:53;96103.03;;;8.25;94.93
24160;BME280;62385;41.594;23.808;2022-12-18T03:45:28;96105.28;;;8.10;94.56
24160;BME280;62385;41.594;23.808;2022-12-18T03:50:56;96110.44;;;8.02;96.22
24160;BME280;62385;41.594;23.808;2022-12-18T03:56:05;96114.34;;;7.98;94.55
24160;BME280;62385;41.594;23.808;2022-12-18T03:58:38;96116.13;;;7.88;94.22
24160;BME280;62385;41.594;23.808;2022-12-18T04:01:19;96115.72;;;8.02;93.76
24160;BME280;62385;41.594;23.808;2022-12-18T04:03:49;96132.84;;;7.98;94.00
24160;BME280;62385;41.594;23.808;2022-12-18T04:06:17;96124.50;;;7.93;94.07
24160;BME280;62385;41.594;23.808;2022-12-18T04:08:44;96117.38;;;7.84;93.52
24160;BME280;62385;41.594;23.808;2022-12-18T04:11:15;96129.22;;;7.80;93.44
24160;BME280;62385;41.594;23.808;2022-12-18T04:13:44;96129.19;;;7.61;94.13
24160;BME280;62385;41.594;23.808;2022-12-18T04:16:20;96125.84;;;7.59;94.05
24160;BME280;62385;41.594;23.808;2022-12-18T04:18:50;96120.56;;;7.49;93.90
24160;BME280;62385;41.594;23.808;2022-12-18T04:21:17;96130.00;;;7.52;93.90
24160;BME280;62385;41.594;23.808;2022-12-18T04:23:43;96125.13;;;7.47;94.44
24160;BME280;62385;41.594;23.808;2022-12-18T04:26:09;96133.78;;;7.49;94.27
24160;BME280;62385;41.594;23.808;2022-12-18T04:28:53;96137.19;;;7.30;93.66
24160;BME280;62385;41.594;23.808;2022-12-18T04:31:19;96126.75;;;7.19;93.71
24160;BME280;62385;41.594;23.808;2022-12-18T04:33:46;96129.09;;;7.22;93.99
24160;BME280;62385;41.594;23.808;2022-12-18T04:36:13;96137.75;;;7.24;94.02
24160;BME280;62385;41.594;23.808;2022-12-18T04:38:40;96140.94;;;7.28;93.68
24160;BME280;62385;41.594;23.808;2022-12-18T04:41:13;96145.06;;;7.21;93.19
24160;BME280;62385;41.594;23.808;2022-12-18T04:43:42;96135.28;;;7.02;93.99
24160;BME280;62385;41.594;23.808;2022-12-18T04:46:08;96149.63;;;7.09;93.91
24160;BME280;62385;41.594;23.808;2022-12-18T04:48:34;96154.22;;;7.07;94.02
24160;BME280;62385;41.594;23.808;2022-12-18T04:51:01;96159.72;;;7.04;94.03
24160;BME280;62385;41.594;23.808;2022-12-18T04:53:27;96154.28;;;6.96;93.28
24160;BME280;62385;41.594;23.808;2022-12-18T04:56:10;96168.03;;;6.90;93.24
24160;BME280;62385;41.594;23.808;2022-12-18T04:58:37;96173.03;;;6.93;93.20
24160;BME280;62385;41.594;23.808;2022-12-18T05:01:03;96173.47;;;6.98;93.75
24160;BME280;62385;41.594;23.808;2022-12-18T05:03:31;96184.88;;;6.99;93.53
24160;BME280;62385;41.594;23.808;2022-12-18T05:05:56;96180.69;;;6.96;93.26
24160;BME280;62385;41.594;23.808;2022-12-18T05:08:23;96178.53;;;7.11;93.55
24160;BME280;62385;41.594;23.808;2022-12-18T05:10:48;96167.63;;;6.94;93.52
24160;BME280;62385;41.594;23.808;2022-12-18T05:13:14;96177.03;;;6.87;93.35
24160;BME280;62385;41.594;23.808;2022-12-18T05:15:40;96187.13;;;7.03;93.02
24160;BME280;62385;41.594;23.808;2022-12-18T05:18:08;96191.66;;;6.91;93.24
24160;BME280;62385;41.594;23.808;2022-12-18T05:20:33;96193.09;;;6.75;93.22
24160;BME280;62385;41.594;23.808;2022-12-18T05:22:59;96203.84;;;6.83;93.21
24160;BME280;62385;41.594;23.808;2022-12-18T05:25:25;96206.59;;;6.81;93.01
24160;BME280;62385;41.594;23.808;2022-12-18T05:27:51;96200.56;;;6.70;92.65
24160;BME280;62385;41.594;23.808;2022-12-18T05:30:17;96210.38;;;6.68;92.85
24160;BME280;62385;41.594;23.808;2022-12-18T05:32:43;96214.41;;;6.62;93.14
24160;BME280;62385;41.594;23.808;2022-12-18T05:35:10;96205.75;;;6.60;93.09
24160;BME280;62385;41.594;23.808;2022-12-18T05:37:37;96203.00;;;6.62;93.31
24160;BME280;62385;41.594;23.808;2022-12-18T05:40:04;96207.19;;;6.64;93.30
24160;BME280;62385;41.594;23.808;2022-12-18T05:42:30;96222.41;;;6.81;93.62
24160;BME280;62385;41.594;23.808;2022-12-18T05:44:56;96221.47;;;6.82;93.02
24160;BME280;62385;41.594;23.808;2022-12-18T05:47:23;96237.22;;;6.73;93.39
24160;BME280;62385;41.594;23.808;2022-12-18T05:49:49;96243.59;;;6.70;93.49
24160;BME280;62385;41.594;23.808;2022-12-18T05:52:14;96229.38;;;6.62;93.08
24160;BME280;62385;41.594;23.808;2022-12-18T05:54:40;96231.31;;;6.60;92.58
24160;BME280;62385;41.594;23.808;2022-12-18T05:57:05;96251.13;;;6.54;93.44
24160;BME280;62385;41.594;23.808;2022-12-18T05:59:31;96233.25;;;6.58;93.56
24160;BME280;62385;41.594;23.808;2022-12-18T06:01:58;96248.34;;;6.76;93.41
24160;BME280;62385;41.594;23.808;2022-12-18T06:04:23;96257.22;;;6.75;93.61
24160;BME280;62385;41.594;23.808;2022-12-18T06:06:49;96257.19;;;6.86;93.41
24160;BME280;62385;41.594;23.808;2022-12-18T06:09:14;96256.25;;;6.97;92.97
24160;BME280;62385;41.594;23.808;2022-12-18T06:11:40;96256.78;;;7.12;93.13
24160;BME280;62385;41.594;23.808;2022-12-18T06:14:06;96263.41;;;7.06;92.61
24160;BME280;62385;41.594;23.808;2022-12-18T06:16:32;96256.06;;;7.10;93.05
24160;BME280;62385;41.594;23.808;2022-12-18T06:18:59;96269.53;;;7.07;92.82
24160;BME280;62385;41.594;23.808;2022-12-18T06:21:26;96267.13;;;7.24;92.81
24160;BME280;62385;41.594;23.808;2022-12-18T06:23:51;96256.81;;;7.21;93.11
24160;BME280;62385;41.594;23.808;2022-12-18T06:26:18;96259.72;;;7.18;92.70
24160;BME280;62385;41.594;23.808;2022-12-18T06:28:44;96263.59;;;7.14;92.77
24160;BME280;62385;41.594;23.808;2022-12-18T06:31:10;96269.50;;;7.27;92.86
24160;BME280;62385;41.594;23.808;2022-12-18T06:33:36;96282.63;;;7.38;92.84
24160;BME280;62385;41.594;23.808;2022-12-18T06:36:05;96280.81;;;7.39;92.62
24160;BME280;62385;41.594;23.808;2022-12-18T06:38:33;96285.59;;;7.55;93.52
24160;BME280;62385;41.594;23.808;2022-12-18T06:40:59;96290.53;;;7.69;92.09
24160;BME280;62385;41.594;23.808;2022-12-18T06:43:24;96289.75;;;7.78;92.04
24160;BME280;62385;41.594;23.808;2022-12-18T06:45:50;96299.00;;;8.03;92.72
24160;BME280;62385;41.594;23.808;2022-12-18T06:48:21;96304.50;;;8.30;91.26
24160;BME280;62385;41.594;23.808;2022-12-18T06:50:47;96317.34;;;8.34;91.24
24160;BME280;62385;41.594;23.808;2022-12-18T06:53:13;96310.25;;;8.35;91.32
24160;BME280;62385;41.594;23.808;2022-12-18T06:55:39;96305.72;;;8.26;91.54
24160;BME280;62385;41.594;23.808;2022-12-18T06:58:04;96317.16;;;8.26;91.98
24160;BME280;62385;41.594;23.808;2022-12-18T07:00:30;96315.75;;;8.22;92.13
24160;BME280;62385;41.594;23.808;2022-12-18T07:02:56;96327.00;;;8.24;92.48
24160;BME280;62385;41.594;23.808;2022-12-18T07:05:22;96327.00;;;8.24;92.77
24160;BME280;62385;41.594;23.808;2022-12-18T07:07:48;96325.00;;;8.38;91.90
24160;BME280;62385;41.594;23.808;2022-12-18T07:10:13;96324.25;;;8.26;92.44
24160;BME280;62385;41.594;23.808;2022-12-18T07:12:39;96319.91;;;8.15;92.68
24160;BME280;62385;41.594;23.808;2022-12-18T07:15:05;96332.47;;;8.23;92.51
24160;BME280;62385;41.594;23.808;2022-12-18T07:17:30;96332.50;;;8.32;92.10
24160;BME280;62385;41.594;23.808;2022-12-18T07:19:56;96327.91;;;8.34;92.53
24160;BME280;62385;41.594;23.808;2022-12-18T07:22:22;96321.09;;;8.42;92.42
24160;BME280;62385;41.594;23.808;2022-12-18T07:24:48;96319.59;;;8.58;91.67
24160;BME280;62385;41.594;23.808;2022-12-18T07:27:13;96322.69;;;8.73;91.03
24160;BME280;62385;41.594;23.808;2022-12-18T07:29:39;96324.03;;;8.87;90.65
24160;BME280;62385;41.594;23.808;2022-12-18T07:32:05;96322.25;;;8.77;91.40
24160;BME280;62385;41.594;23.808;2022-12-18T07:34:31;96320.44;;;8.68;92.34
24160;BME280;62385;41.594;23.808;2022-12-18T07:36:56;96312.78;;;8.75;91.94
24160;BME280;62385;41.594;23.808;2022-12-18T07:39:23;96325.16;;;9.03;90.67
24160;BME280;62385;41.594;23.808;2022-12-18T07:41:48;96325.16;;;9.13;90.75
24160;BME280;62385;41.594;23.808;2022-12-18T07:44:34;96321.50;;;9.23;89.90
24160;BME280;62385;41.594;23.808;2022-12-18T07:46:59;96337.25;;;9.25;90.69
24160;BME280;62385;41.594;23.808;2022-12-18T07:49:25;96333.53;;;9.18;90.55
24160;BME280;62385;41.594;23.808;2022-12-18T07:51:51;96328.75;;;9.31;90.33
24160;BME280;62385;41.594;23.808;2022-12-18T07:54:16;96335.41;;;9.45;89.60
24160;BME280;62385;41.594;23.808;2022-12-18T07:56:42;96341.94;;;9.60;89.22
24160;BME280;62385;41.594;23.808;2022-12-18T07:59:08;96343.72;;;9.69;89.95
24160;BME280;62385;41.594;23.808;2022-12-18T08:01:33;96338.56;;;9.77;88.91
24160;BME280;62385;41.594;23.808;2022-12-18T08:04:00;96338.56;;;9.77;88.69
24160;BME280;62385;41.594;23.808;2022-12-18T08:06:25;96349.16;;;9.77;88.84
24160;BME280;62385;41.594;23.808;2022-12-18T08:08:54;96341.63;;;9.72;88.65
24160;BME280;62385;41.594;23.808;2022-12-18T08:11:20;96340.16;;;9.88;88.95
24160;BME280;62385;41.594;23.808;2022-12-18T08:13:46;96337.22;;;9.91;88.87
24160;BME280;62385;41.594;23.808;2022-12-18T08:16:12;96346.13;;;9.99;87.92
24160;BME280;62385;41.594;23.808;2022-12-18T08:18:38;96344.75;;;9.95;88.06
24160;BME280;62385;41.594;23.808;2022-12-18T08:21:18;96341.78;;;9.98;88.70
24160;BME280;62385;41.594;23.808;2022-12-18T08:23:44;96339.66;;;10.11;88.69
24160;BME280;62385;41.594;23.808;2022-12-18T08:26:11;96348.22;;;10.05;89.66
24160;BME280;62385;41.594;23.808;2022-12-18T08:28:37;96343.56;;;10.07;88.51
24160;BME280;62385;41.594;23.808;2022-12-18T08:31:03;96349.84;;;10.06;88.79
24160;BME280;62385;41.594;23.808;2022-12-18T08:33:29;96358.66;;;10.07;88.71
24160;BME280;62385;41.594;23.808;2022-12-18T08:35:54;96345.88;;;10.30;89.65
24160;BME280;62385;41.594;23.808;2022-12-18T08:38:20;96357.78;;;10.26;89.01
24160;BME280;62385;41.594;23.808;2022-12-18T08:40:46;96354.81;;;10.29;87.62
24160;BME280;62385;41.594;23.808;2022-12-18T08:43:11;96350.03;;;10.32;88.74
24160;BME280;62385;41.594;23.808;2022-12-18T08:45:56;96349.59;;;10.37;87.99
24160;BME280;62385;41.594;23.808;2022-12-18T08:48:21;96358.44;;;10.28;88.35
24160;BME280;62385;41.594;23.808;2022-12-18T08:50:58;96363.47;;;10.31;88.86
24160;BME280;62385;41.594;23.808;2022-12-18T08:53:23;96355.66;;;10.29;87.81
24160;BME280;62385;41.594;23.808;2022-12-18T08:55:49;96354.25;;;10.52;87.65
24160;BME280;62385;41.594;23.808;2022-12-18T08:58:15;96360.66;;;10.77;87.15
24160;BME280;62385;41.594;23.808;2022-12-18T09:00:40;96359.28;;;10.73;87.13
24160;BME280;62385;41.594;23.808;2022-12-18T09:03:15;96356.78;;;10.89;87.13
24160;BME280;62385;41.594;23.808;2022-12-18T09:05:41;96366.59;;;10.71;87.78
24160;BME280;62385;41.594;23.808;2022-12-18T09:08:06;96369.56;;;10.68;86.50
24160;BME280;62385;41.594;23.808;2022-12-18T09:10:32;96354.22;;;10.97;85.64
24160;BME280;62385;41.594;23.808;2022-12-18T09:12:58;96346.81;;;11.01;86.37
24160;BME280;62385;41.594;23.808;2022-12-18T09:15:51;96352.41;;;10.98;86.00
24160;BME280;62385;41.594;23.808;2022-12-18T09:18:18;96356.34;;;10.94;85.76
24160;BME280;62385;41.594;23.808;2022-12-18T09:20:44;96354.66;;;11.28;84.59
24160;BME280;62385;41.594;23.808;2022-12-18T09:23:12;96347.34;;;11.48;83.63
24160;BME280;62385;41.594;23.808;2022-12-18T09:25:38;96354.25;;;11.41;83.22
24160;BME280;62385;41.594;23.808;2022-12-18T09:28:15;96350.03;;;10.95;83.09
24160;BME280;62385;41.594;23.808;2022-12-18T09:30:43;96344.56;;;11.32;82.32
24160;BME280;62385;41.594;23.808;2022-12-18T09:33:09;96343.75;;;11.57;81.02
24160;BME280;62385;41.594;23.808;2022-12-18T09:35:39;96346.97;;;11.69;80.95
24160;BME280;62385;41.594;23.808;2022-12-18T09:38:06;96355.75;;;11.61;81.35
24160;BME280;62385;41.594;23.808;2022-12-18T09:40:35;96354.72;;;11.36;83.06
24160;BME280;62385;41.594;23.808;2022-12-18T09:43:04;96357.41;;;11.62;83.48
24160;BME280;62385;41.594;23.808;2022-12-18T09:45:42;96350.94;;;11.65;82.85
24160;BME280;62385;41.594;23.808;2022-12-18T09:48:23;96342.75;;;11.76;82.53
24160;BME280;62385;41.594;23.808;2022-12-18T09:50:51;96351.75;;;11.83;80.88
24160;BME280;62385;41.594;23.808;2022-12-18T09:53:22;96340.31;;;11.90;82.02
24160;BME280;62385;41.594;23.808;2022-12-18T09:56:13;96342.91;;;11.74;82.20
24160;BME280;62385;41.594;23.808;2022-12-18T10:01:19;96348.44;;;12.15;81.23
24160;BME280;62385;41.594;23.808;2022-12-18T10:03:47;96343.97;;;12.23;79.96
24160;BME280;62385;41.594;23.808;2022-12-18T10:06:17;96343.09;;;12.15;79.22
24160;BME280;62385;41.594;23.808;2022-12-18T10:08:58;96334.00;;;12.17;79.56
24160;BME280;62385;41.594;23.808;2022-12-18T10:14:21;96335.41;;;12.37;79.65
24160;BME280;62385;41.594;23.808;2022-12-18T10:20:02;96325.59;;;12.46;79.64
24160;BME280;62385;41.594;23.808;2022-12-18T10:26:00;96329.47;;;12.68;78.82
24160;BME280;62385;41.594;23.808;2022-12-18T10:28:30;96321.44;;;12.52;78.42
24160;BME280;62385;41.594;23.808;2022-12-18T10:30:56;96317.97;;;12.59;79.11
24160;BME280;62385;41.594;23.808;2022-12-18T10:33:24;96317.31;;;12.57;78.71
24160;BME280;62385;41.594;23.808;2022-12-18T10:35:53;96321.56;;;12.34;79.00
24160;BME280;62385;41.594;23.808;2022-12-18T10:38:23;96310.69;;;12.19;81.04
24160;BME280;62385;41.594;23.808;2022-12-18T10:41:02;96314.25;;;12.36;79.36
24160;BME280;62385;41.594;23.808;2022-12-18T10:43:38;96310.06;;;12.25;79.99
24160;BME280;62385;41.594;23.808;2022-12-18T10:48:32;96323.41;;;12.33;79.81
24160;BME280;62385;41.594;23.808;2022-12-18T10:50:59;96317.25;;;12.41;78.83
24160;BME280;62385;41.594;23.808;2022-12-18T10:53:28;96318.59;;;12.45;78.15
24160;BME280;62385;41.594;23.808;2022-12-18T10:55:56;96322.69;;;12.23;77.74
24160;BME280;62385;41.594;23.808;2022-12-18T11:01:12;96316.25;;;12.34;77.22
24160;BME280;62385;41.594;23.808;2022-12-18T11:03:39;96315.13;;;12.53;77.91
24160;BME280;62385;41.594;23.808;2022-12-18T11:06:19;96304.66;;;12.59;76.23
24160;BME280;62385;41.594;23.808;2022-12-18T11:09:08;96315.63;;;12.48;78.49
24160;BME280;62385;41.594;23.808;2022-12-18T11:11:48;96310.69;;;12.69;75.90
24160;BME280;62385;41.594;23.808;2022-12-18T11:14:19;96312.94;;;12.40;75.56
24160;BME280;62385;41.594;23.808;2022-12-18T11:16:47;96316.09;;;12.43;75.34
24160;BME280;62385;41.594;23.808;2022-12-18T11:19:40;96310.97;;;12.50;74.36
24160;BME280;62385;41.594;23.808;2022-12-18T11:22:26;96300.81;;;12.54;73.17
24160;BME280;62385;41.594;23.808;2022-12-18T11:24:58;96299.50;;;12.66;74.02
24160;BME280;62385;41.594;23.808;2022-12-18T11:27:25;96301.53;;;12.80;74.50
24160;BME280;62385;41.594;23.808;2022-12-18T11:30:07;96296.03;;;12.81;73.62
24160;BME280;62385;41.594;23.808;2022-12-18T11:32:42;96294.84;;;12.76;73.92
24160;BME280;62385;41.594;23.808;2022-12-18T11:40:56;96294.34;;;12.72;73.96
24160;BME280;62385;41.594;23.808;2022-12-18T11:43:48;96296.66;;;12.67;73.84
24160;BME280;62385;41.594;23.808;2022-12-18T11:46:34;96302.34;;;12.64;74.91
24160;BME280;62385;41.594;23.808;2022-12-18T11:49:09;96304.31;;;12.54;73.95
24160;BME280;62385;41.594;23.808;2022-12-18T11:51:43;96300.97;;;12.52;73.58
24160;BME280;62385;41.594;23.808;2022-12-18T11:54:12;96296.03;;;12.73;71.87
24160;BME280;62385;41.594;23.808;2022-12-18T11:56:53;96292.72;;;12.87;71.92
24160;BME280;62385;41.594;23.808;2022-12-18T12:02:27;96285.03;;;12.92;71.63
24160;BME280;62385;41.594;23.808;2022-12-18T12:05:20;96286.22;;;12.98;71.24
24160;BME280;62385;41.594;23.808;2022-12-18T12:22:13;96285.41;;;13.14;71.71
24160;BME280;62385;41.594;23.808;2022-12-18T12:24:53;96286.56;;;13.03;71.33
24160;BME280;62385;41.594;23.808;2022-12-18T12:27:43;96281.75;;;13.15;72.09
24160;BME280;62385;41.594;23.808;2022-12-18T12:39:01;96275.19;;;12.69;76.41
24160;BME280;62385;41.594;23.808;2022-12-18T12:41:32;96283.88;;;12.79;78.66
24160;BME280;62385;41.594;23.808;2022-12-18T12:44:23;96283.22;;;13.01;72.51
24160;BME280;62385;41.594;23.808;2022-12-18T12:46:54;96279.72;;;13.57;74.26
24160;BME280;62385;41.594;23.808;2022-12-18T12:49:26;96277.88;;;13.01;72.63
24160;BME280;62385;41.594;23.808;2022-12-18T12:52:00;96282.06;;;12.95;72.49
24160;BME280;62385;41.594;23.808;2022-12-18T12:54:31;96284.06;;;13.02;73.24
24160;BME280;62385;41.594;23.808;2022-12-18T12:57:26;96279.56;;;12.94;72.12
24160;BME280;62385;41.594;23.808;2022-12-18T13:05:56;96299.41;;;13.00;71.30
24160;BME280;62385;41.594;23.808;2022-12-18T13:08:28;96303.91;;;12.99;71.37
24160;BME280;62385;41.594;23.808;2022-12-18T13:10:55;96304.72;;;12.83;72.27
24160;BME280;62385;41.594;23.808;2022-12-18T13:13:54;96304.38;;;12.86;72.50
24160;BME280;62385;41.594;23.808;2022-12-18T13:16:24;96306.69;;;12.73;71.78
24160;BME280;62385;41.594;23.808;2022-12-18T13:18:55;96314.19;;;12.78;71.60
24160;BME280;62385;41.594;23.808;2022-12-18T13:21:25;96321.00;;;12.72;72.29
24160;BME280;62385;41.594;23.808;2022-12-18T13:23:53;96306.19;;;12.78;71.56
24160;BME280;62385;41.594;23.808;2022-12-18T13:34:20;96318.31;;;12.56;73.86
24160;BME280;62385;41.594;23.808;2022-12-18T13:36:48;96317.63;;;12.54;74.30
24160;BME280;62385;41.594;23.808;2022-12-18T13:41:44;96327.53;;;12.28;75.04
24160;BME280;62385;41.594;23.808;2022-12-18T13:44:36;96320.56;;;12.35;75.73
24160;BME280;62385;41.594;23.808;2022-12-18T13:49:51;96328.16;;;12.22;75.37
24160;BME280;62385;41.594;23.808;2022-12-18T13:52:28;96320.16;;;12.22;75.63
24160;BME280;62385;41.594;23.808;2022-12-18T13:54:56;96323.50;;;12.16;75.84
24160;BME280;62385;41.594;23.808;2022-12-18T13:57:33;96339.31;;;12.17;76.15
24160;BME280;62385;41.594;23.808;2022-12-18T14:00:32;96333.22;;;11.99;76.65
24160;BME280;62385;41.594;23.808;2022-12-18T14:02:59;96335.38;;;11.95;76.80
24160;BME280;62385;41.594;23.808;2022-12-18T14:05:30;96337.31;;;11.85;77.11
24160;BME280;62385;41.594;23.808;2022-12-18T14:08:02;96340.59;;;11.79;76.64
24160;BME280;62385;41.594;23.808;2022-12-18T14:10:30;96341.50;;;11.88;76.96
24160;BME280;62385;41.594;23.808;2022-12-18T14:12:56;96337.44;;;11.76;75.78
24160;BME280;62385;41.594;23.808;2022-12-18T14:18:03;96353.47;;;11.66;77.55
24160;BME280;62385;41.594;23.808;2022-12-18T14:20:41;96341.84;;;11.67;77.34
24160;BME280;62385;41.594;23.808;2022-12-18T14:23:34;96360.41;;;11.59;78.57
24160;BME280;62385;41.594;23.808;2022-12-18T14:28:45;96353.09;;;11.43;79.51
24160;BME280;62385;41.594;23.808;2022-12-18T14:31:18;96360.63;;;11.48;78.87
24160;BME280;62385;41.594;23.808;2022-12-18T14:33:44;96362.50;;;11.30;80.92
24160;BME280;62385;41.594;23.808;2022-12-18T14:36:21;96360.06;;;11.19;80.96
24160;BME280;62385;41.594;23.808;2022-12-18T14:38:50;96375.16;;;11.18;80.13
24160;BME280;62385;41.594;23.808;2022-12-18T14:41:17;96377.38;;;11.23;79.66
24160;BME280;62385;41.594;23.808;2022-12-18T14:43:45;96376.56;;;11.22;78.21
24160;BME280;62385;41.594;23.808;2022-12-18T14:46:28;96380.03;;;11.23;79.70
24160;BME280;62385;41.594;23.808;2022-12-18T14:49:33;96391.66;;;11.22;79.76
24160;BME280;62385;41.594;23.808;2022-12-18T14:52:02;96393.25;;;11.15;80.87